Latest Weather Observations for Ballarat

IDV60801

Issued at 4:31 pm EDT Monday 8 February 2016 (issued every 30 minutes, with the page automatically refreshed every 10 minutes)

About weather observations | Map of weather stations | Latest weather observations for VIC | Other Formats
Station Details ID: 089002 Name: BALLARAT AERODROME Lat: -37.51 Lon: 143.79 Height: 435.2 m
Data from the previous 72 hours. | See also: Recent months at Ballarat
Date/Time
EDT
Temp
°C
App
Temp
°C
Dew
Point
Rel
Hum
%
Delta-T
°C
Wind Press
QNH
hPa
Press
MSL
hPa
Rain
since 9 am
mm
Dir
 
Spd
km/h
Gust
km/h
Spd
kts
Gust
kts
08/04:30pm 26.7 21.5 7.2 29 10.5 SSE 24 33 13 18 1021.1 1019.7 -
08/04:00pm 26.8 21.9 6.8 28 10.7 SSE 22 32 12 17 1021.3 1019.9 -
08/03:30pm 26.7 21.8 6.7 28 10.7 S 22 33 12 18 1021.6 1020.3 -
08/03:00pm 26.1 20.9 7.2 30 10.2 S 24 35 13 19 1021.7 1020.4 0.2
08/02:30pm 25.8 21.0 8.8 34 9.4 S 24 39 13 21 1021.8 1020.5 -
08/02:00pm 25.4 21.6 9.7 37 8.8 SE 20 32 11 17 1021.9 1020.6 -
08/01:30pm 24.7 20.4 9.4 38 8.5 SSE 22 32 12 17 1022.2 1020.9 -
08/01:00pm 24.4 20.2 11.0 43 7.6 S 24 35 13 19 1022.4 1021.1 -
08/12:30pm 22.4 17.7 10.5 47 6.7 SSE 26 33 14 18 1022.5 1021.2 -
08/12:00pm 21.3 17.1 12.4 57 5.1 SSE 26 35 14 19 1022.7 1021.4 -
08/11:30am 20.0 16.4 13.2 65 3.9 SE 24 33 13 18 1023.0 1021.6 -
08/11:00am 18.7 15.3 13.6 72 3.0 SSE 24 32 13 17 1023.1 1021.7 -
08/10:30am 17.6 14.1 13.5 77 2.4 SSE 24 30 13 16 1023.2 1021.8 0.0
08/10:00am 16.6 13.5 13.5 82 1.8 SSE 22 32 12 17 1023.0 1021.6 0.0
08/09:30am 15.9 12.5 13.6 86 1.3 SSE 24 30 13 16 1022.8 1021.5 0.0
08/09:00am 15.5 12.7 14.4 93 0.6 SSE 22 28 12 15 1022.5 1021.2 0.0
08/08:30am 14.9 12.3 13.9 94 0.6 S 20 26 11 14 1022.3 1021.0 0.0
08/08:00am 14.8 12.6 14.5 98 0.2 SSE 19 22 10 12 1022.1 1020.8 0.0
08/07:30am 14.5 12.1 14.3 99 0.1 SSE 20 28 11 15 1021.9 1020.6 0.0
08/07:00am 14.4 11.6 14.2 99 0.1 S 22 28 12 15 1021.8 1020.5 0.0
08/06:30am 14.5 12.1 14.3 99 0.1 S 20 28 11 15 1021.5 1020.2 0.0
08/06:00am 14.5 12.3 14.5 100 0.0 S 19 24 10 13 1021.1 1019.7 0.0
08/05:30am 14.6 12.4 14.4 99 0.1 S 19 24 10 13 1020.9 1019.5 0.0
08/05:00am 14.6 12.8 14.4 99 0.1 S 17 22 9 12 1020.7 1019.3 0.0
08/04:30am 14.7 12.5 14.5 99 0.1 S 19 22 10 12 1020.8 1019.4 0.0
08/04:00am 14.6 12.4 14.4 99 0.1 S 19 22 10 12 1020.8 1019.4 0.0
08/03:30am 14.7 12.5 14.5 99 0.1 S 19 24 10 13 1020.9 1019.5 0.0
08/03:24am 14.7 12.5 14.5 99 0.1 SSE 19 20 10 11 1021.0 1019.6 0.0
08/03:01am 14.5 12.1 14.3 99 0.1 S 20 26 11 14 1021.0 1019.6 0.0
08/03:00am 14.5 12.1 14.3 99 0.1 S 20 26 11 14 1021.0 1019.6 0.0
08/02:30am 14.5 12.0 14.2 98 0.2 SSE 20 26 11 14 1021.0 1019.6 0.0
08/02:00am 14.6 12.4 14.3 98 0.2 S 19 24 10 13 1021.2 1019.8 0.0
08/01:30am 15.3 13.1 13.3 88 1.1 S 17 26 9 14 1021.5 1020.2 0.0
08/01:00am 15.8 13.0 12.5 81 1.8 S 19 22 10 12 1021.3 1019.9 0.0
08/12:30am 16.6 13.7 12.2 75 2.5 S 19 24 10 13 1021.2 1019.8 0.0
08/12:00am 17.7 14.5 11.9 69 3.2 S 20 26 11 14 1021.0 1019.6 0.0
 
Date/Time
EDT
Temp
°C
App
Temp
°C
Dew
Point
Rel
Hum
%
Delta-T
°C
Wind Press
QNH
hPa
Press
MSL
hPa
Rain
since 9 am
mm
Dir
 
Spd
km/h
Gust
km/h
Spd
kts
Gust
kts
07/11:30pm 18.6 15.6 12.1 66 3.7 S 19 24 10 13 1020.8 1019.4 0.0
07/11:00pm 19.1 16.1 12.1 64 4.0 SSE 19 22 10 12 1020.8 1019.4 0.0
07/10:30pm 19.7 16.8 12.2 62 4.3 SE 19 24 10 13 1020.6 1019.2 0.0
07/10:00pm 20.4 17.4 12.6 61 4.5 SE 20 28 11 15 1020.2 1018.9 0.0
07/09:30pm 21.3 18.1 13.0 59 4.8 SSE 22 30 12 16 1019.9 1018.6 0.0
07/09:00pm 22.4 18.9 10.9 48 6.5 S 20 24 11 13 1019.5 1018.2 0.0
07/08:30pm 23.9 19.4 10.2 42 7.7 S 24 32 13 17 1019.1 1017.7 0.0
07/08:00pm 25.7 20.9 10.3 38 8.7 S 26 33 14 18 1018.6 1017.2 0.0
07/07:30pm 26.8 21.9 11.3 38 9.0 S 28 37 15 20 1018.2 1016.8 0.0
07/07:00pm 27.8 22.3 11.8 37 9.4 S 32 41 17 22 1017.7 1016.4 0.0
07/06:30pm 29.2 24.0 11.7 34 10.3 S 30 44 16 24 1017.2 1015.8 0.0
07/06:00pm 30.2 25.5 10.7 30 11.4 S 26 43 14 23 1016.9 1015.5 0.0
07/05:30pm 31.8 29.3 8.1 23 13.4 WSW 11 19 6 10 1016.7 1015.3 0.0
07/05:00pm 31.5 28.7 8.5 24 13.0 S 13 22 7 12 1016.7 1015.3 0.0
07/04:30pm 31.7 28.4 8.0 23 13.3 SW 15 24 8 13 1016.8 1015.4 0.0
07/04:00pm 32.2 28.2 8.4 23 13.5 SW 19 30 10 16 1016.9 1015.5 0.0
07/03:30pm 31.0 28.0 7.5 23 13.1 WNW 13 20 7 11 1017.0 1015.6 0.0
07/03:00pm 31.8 28.8 9.3 25 12.9 SW 15 24 8 13 1017.2 1015.8 0.0
07/02:30pm 31.9 29.0 8.2 23 13.4 NNW 13 22 7 12 1017.4 1016.1 0.0
07/02:00pm 30.4 27.4 7.6 24 12.6 WSW 13 22 7 12 1017.7 1016.4 0.0
07/01:30pm 29.6 26.7 8.1 26 12.0 W 13 28 7 15 1018.0 1016.7 0.0
07/01:00pm 30.1 28.2 9.1 27 11.9 NW 9 17 5 9 1018.0 1016.7 0.0
07/12:30pm 29.4 26.1 9.5 29 11.3 NNW 17 26 9 14 1018.3 1016.9 0.0
07/12:00pm 28.7 25.2 8.9 29 11.1 NNW 17 24 9 13 1018.5 1017.1 0.0
07/11:30am 28.1 24.6 8.9 30 10.8 NW 17 24 9 13 1018.8 1017.4 0.0
07/11:00am 27.2 24.8 10.0 34 9.8 NNW 13 24 7 13 1018.8 1017.4 0.0
07/10:30am 27.0 24.0 10.7 36 9.4 NNW 17 24 9 13 1018.9 1017.5 0.0
07/10:00am 25.9 22.2 10.1 37 8.9 N 20 28 11 15 1018.8 1017.4 0.0
07/09:30am 25.1 22.4 10.2 39 8.4 N 15 20 8 11 1018.8 1017.4 0.0
07/09:00am 24.0 20.8 9.9 41 7.9 NNE 17 20 9 11 1018.3 1016.9 0.0
07/08:30am 23.2 21.4 12.2 50 6.4 NNE 13 17 7 9 1018.0 1016.7 0.0
07/08:00am 18.5 18.5 12.5 68 3.4 NNE 4 9 2 5 1017.9 1016.6 0.0
07/07:30am 16.6 17.0 11.1 70 3.0 CALM 0 0 0 0 1017.6 1016.3 0.0
07/07:00am 16.0 16.2 10.7 71 2.9 CALM 0 0 0 0 1017.3 1016.0 0.0
07/06:30am 16.1 16.5 11.1 72 2.7 CALM 0 0 0 0 1017.0 1015.6 0.0
07/06:00am 15.8 16.1 11.0 73 2.6 CALM 0 0 0 0 1016.6 1015.2 0.0
07/05:30am 16.0 15.7 11.6 75 2.4 ENE 4 9 2 5 1016.5 1015.1 0.0
07/05:00am 15.4 14.8 11.6 78 2.1 N 6 7 3 4 1016.5 1015.1 0.0
07/04:30am 15.3 14.8 12.1 81 1.8 NNE 6 7 3 4 1016.4 1015.0 0.0
07/04:00am 15.4 16.2 12.7 84 1.5 CALM 0 0 0 0 1016.4 1015.0 0.0
07/03:30am 14.3 13.5 11.6 84 1.5 ENE 7 9 4 5 1016.4 1015.0 0.0
07/03:00am 15.5 16.1 11.9 79 2.0 CALM 0 4 0 2 1016.5 1015.1 0.0
07/02:30am 15.4 15.3 12.0 80 1.9 NW 4 7 2 4 1016.5 1015.1 0.0
07/02:00am 17.2 16.9 12.7 75 2.6 E 6 9 3 5 1016.6 1015.2 0.0
07/01:30am 18.2 17.1 13.1 72 2.9 SE 11 13 6 7 1016.9 1015.5 0.0
07/01:00am 19.1 17.3 13.3 69 3.4 SE 15 19 8 10 1016.8 1015.4 0.0
07/12:30am 19.3 17.0 13.0 67 3.6 SE 17 20 9 11 1016.8 1015.4 0.0
07/12:00am 19.6 16.6 12.1 62 4.3 SE 19 24 10 13 1016.9 1015.5 0.0
 
Date/Time
EDT
Temp
°C
App
Temp
°C
Dew
Point
Rel
Hum
%
Delta-T
°C
Wind Press
QNH
hPa
Press
MSL
hPa
Rain
since 9 am
mm
Dir
 
Spd
km/h
Gust
km/h
Spd
kts
Gust
kts
06/11:30pm 20.1 17.6 12.3 61 4.5 SE 17 22 9 12 1016.8 1015.4 0.0
06/11:00pm 20.7 17.6 12.1 58 4.9 SE 20 24 11 13 1016.9 1015.5 0.0
06/10:30pm 20.9 18.3 12.1 57 5.0 SSE 17 20 9 11 1016.9 1015.5 0.0
06/10:00pm 21.4 18.3 12.3 56 5.2 SSE 20 26 11 14 1016.7 1015.3 0.0
06/09:30pm 22.1 17.8 12.1 53 5.8 SSE 26 35 14 19 1016.3 1014.9 0.0
06/09:00pm 23.4 18.7 12.1 49 6.5 S 28 39 15 21 1016.0 1014.6 0.0
06/08:30pm 25.4 20.4 10.8 40 8.3 S 28 41 15 22 1015.3 1014.0 0.0
06/08:00pm 27.4 23.1 10.6 35 9.7 SSW 24 32 13 17 1015.0 1013.6 0.0
06/07:48pm 28.3 25.8 9.6 31 10.6 NW 13 41 7 22 1014.8 1013.4 0.0
06/07:30pm 30.5 28.8 5.7 21 13.4 WSW 4 9 2 5 1014.7 1013.3 0.0
06/07:00pm 29.9 28.2 5.9 22 12.9 N 4 9 2 5 1014.6 1013.2 0.0
06/06:30pm 30.1 27.8 4.7 20 13.4 SE 6 13 3 7 1014.7 1013.3 0.0
06/06:00pm 30.3 27.2 5.6 21 13.3 E 11 15 6 8 1014.8 1013.4 0.0
06/05:30pm 30.5 28.5 6.4 22 13.1 WSW 6 11 3 6 1014.9 1013.5 0.0
06/05:00pm 30.3 27.3 7.5 24 12.6 WNW 13 26 7 14 1015.1 1013.7 0.0
06/04:30pm 29.9 27.2 7.2 24 12.5 ENE 11 17 6 9 1015.3 1014.0 0.0
06/04:00pm 29.4 27.4 7.3 25 12.1 NE 7 17 4 9 1015.8 1014.4 0.0
06/03:30pm 29.5 26.6 8.0 26 12.0 N 13 22 7 12 1016.1 1014.7 0.0
06/03:00pm 28.5 25.4 7.1 26 11.7 N 13 24 7 13 1016.6 1015.2 0.0
06/02:30pm 28.2 25.8 8.5 29 11.0 N 11 20 6 11 1016.9 1015.5 0.0
06/02:00pm 27.2 24.3 8.1 30 10.5 NNW 13 24 7 13 1017.2 1015.8 0.0
06/01:30pm 27.1 23.8 9.5 33 9.9 NNW 17 28 9 15 1017.5 1016.2 0.0
06/01:00pm 26.0 21.9 8.5 33 9.6 N 20 30 11 16 1017.8 1016.5 0.0
06/12:30pm 25.3 20.4 8.3 34 9.3 N 24 33 13 18 1018.3 1016.9 0.0
06/12:00pm 24.6 19.5 9.3 38 8.5 N 26 35 14 19 1018.6 1017.2 0.0
06/11:30am 24.2 18.5 9.8 40 8.0 N 30 39 16 21 1018.8 1017.4 0.0
06/11:00am 22.9 16.6 9.7 43 7.3 N 33 43 18 23 1018.9 1017.5 0.0
06/10:30am 22.2 15.5 9.7 45 6.9 N 35 46 19 25 1019.0 1017.6 0.0
06/10:00am 21.1 14.2 10.3 50 6.0 N 37 52 20 28 1019.0 1017.6 0.0
06/09:30am 20.2 13.3 10.3 53 5.5 NNE 37 48 20 26 1019.2 1017.8 0.0
06/09:00am 19.7 12.2 10.7 56 5.0 N 41 52 22 28 1019.1 1017.7 0.0
06/08:30am 19.3 13.0 11.1 59 4.6 NNE 35 48 19 26 1018.9 1017.5 0.0
06/08:00am 18.3 12.6 11.1 63 4.0 NNE 32 39 17 21 1018.6 1017.2 0.0
06/07:30am 17.3 12.7 11.1 67 3.4 NNE 26 35 14 19 1018.4 1017.0 0.0
06/07:00am 15.8 11.6 11.2 74 2.5 NNE 24 28 13 15 1018.0 1016.7 0.0
06/06:30am 11.7 11.4 11.4 98 0.2 NE 4 15 2 8 1017.5 1016.2 0.0
06/06:00am 11.0 9.5 10.7 98 0.2 NNE 9 11 5 6 1017.3 1016.0 0.0
06/05:30am 12.8 12.4 12.5 98 0.2 SSW 6 6 3 3 1016.8 1015.4 0.0
06/05:00am 13.1 12.6 12.6 97 0.3 SE 7 9 4 5 1016.6 1015.2 0.0
06/04:30am 13.4 12.6 12.8 96 0.3 SSE 9 11 5 6 1016.7 1015.3 0.0
06/04:00am 13.7 12.5 12.8 94 0.5 SE 11 13 6 7 1016.6 1015.2 0.0
06/03:30am 14.0 12.3 12.6 91 0.8 SSE 13 15 7 8 1016.7 1015.3 0.0
06/03:00am 14.4 13.1 12.6 89 1.0 SE 11 15 6 8 1016.9 1015.5 0.0
06/02:30am 14.4 13.0 12.1 86 1.3 SE 11 17 6 9 1017.1 1015.7 0.0
06/02:00am 15.1 12.9 12.1 82 1.7 ESE 15 20 8 11 1017.3 1016.0 0.0
06/01:30am 15.8 12.7 12.2 79 2.0 ESE 20 28 11 15 1017.5 1016.2 0.0
06/01:00am 16.1 12.2 12.1 77 2.2 ESE 24 33 13 18 1017.7 1016.4 0.0
06/12:30am 16.7 12.0 12.0 74 2.6 ESE 28 35 15 19 1017.9 1016.6 0.0
06/12:00am 17.2 12.9 12.1 72 2.9 SE 26 43 14 23 1018.2 1016.8 0.0
 
Date/Time
EDT
Temp
°C
App
Temp
°C
Dew
Point
Rel
Hum
%
Delta-T
°C
Wind Press
QNH
hPa
Press
MSL
hPa
Rain
since 9 am
mm
Dir
 
Spd
km/h
Gust
km/h
Spd
kts
Gust
kts
05/11:30pm 17.5 13.4 12.6 73 2.8 SE 26 32 14 17 1018.2 1016.8 0.0
05/11:00pm 17.9 14.3 13.0 73 2.8 SE 24 32 13 17 1018.4 1017.0 0.0
05/10:30pm 18.3 14.4 13.4 73 2.8 SE 26 33 14 18 1018.5 1017.1 0.0
05/10:00pm 18.9 15.0 13.3 70 3.2 SE 26 32 14 17 1018.4 1017.0 0.0
05/09:30pm 19.9 16.3 12.9 64 4.0 SE 24 30 13 16 1018.3 1016.9 0.0
05/09:00pm 20.7 16.6 12.7 60 4.6 SE 26 37 14 20 1018.2 1016.8 0.0
05/08:30pm 21.5 16.8 12.1 55 5.4 SE 28 35 15 19 1017.8 1016.5 0.0
05/08:00pm 22.7 18.1 11.1 48 6.6 SE 26 35 14 19 1017.5 1016.2 0.0
05/07:30pm 23.9 18.7 10.2 42 7.7 SE 28 37 15 20 1017.2 1015.8 0.0
05/07:00pm 24.5 18.9 10.0 40 8.1 SE 30 39 16 21 1017.0 1015.6 0.0
05/06:30pm 25.3 20.4 10.0 38 8.6 SE 26 33 14 18 1017.0 1015.6 0.0
05/06:00pm 25.9 20.4 9.3 35 9.3 SE 28 35 15 19 1017.2 1015.8 0.0
05/05:30pm 26.4 21.0 7.9 31 10.1 ESE 26 35 14 19 1017.3 1016.0 0.0
05/05:00pm 26.5 20.9 7.0 29 10.5 SE 26 39 14 21 1017.3 1016.0 0.0

Other Formats:

Comma delimited format used in spreadsheet applications
http://www.bom.gov.au/fwo/IDV60801/IDV60801.94852.axf

JavaScript Object Notation format (JSON) in row-major order
http://www.bom.gov.au/fwo/IDV60801/IDV60801.94852.json